Time;durP1;ratioP1;P1;durP2;ratioP2;P2;SDS_P1;SDS_P2;PMS_P1;PMS_P2;Temp;Humidity;BMP_temperature;BMP_pressure;BME280_temperature;BME280_humidity;BME280_pressure;Samples;Min_cycle;Max_cycle;Signal;HPM_P1;HPM_P2
2022/03/09 00:00:38;;;;;;;;;;;3.70;93.30;;;;;;5095760;28;20351;-53
2022/03/09 00:03:03;;;;;;;;;;;3.60;93.40;;;;;;5095657;28;20404;-53
2022/03/09 00:05:29;;;;;;;;;;;3.60;93.80;;;;;;5095011;28;20373;-54
2022/03/09 00:07:54;;;;;;;;;;;3.60;95.00;;;;;;5095662;28;20392;-53
2022/03/09 00:10:20;;;;;;;;;;;3.60;94.30;;;;;;5095568;28;19908;-52
2022/03/09 00:12:45;;;;;;;;;;;3.60;95.10;;;;;;5094930;28;19914;-54
2022/03/09 00:15:11;;;;;;;;;;;3.60;94.60;;;;;;5095431;28;19908;-55
2022/03/09 00:17:36;;;;;;;;;;;3.60;95.00;;;;;;5084129;28;19966;-55
2022/03/09 00:20:02;;;;;;;;;;;3.50;96.50;;;;;;5074628;28;19939;-55
2022/03/09 00:22:28;;;;;;;;;;;3.60;96.30;;;;;;5074929;28;20378;-55
2022/03/09 00:24:53;;;;;;;;;;;3.60;97.50;;;;;;5074895;28;19909;-53
2022/03/09 00:27:18;;;;;;;;;;;3.60;95.10;;;;;;5074661;28;20328;-53
2022/03/09 00:29:44;;;;;;;;;;;3.50;94.90;;;;;;5074900;28;19909;-53
2022/03/09 00:32:11;;;;;;;;;;;3.50;96.70;;;;;;5074020;28;19915;-55
2022/03/09 00:34:37;;;;;;;;;;;3.50;93.90;;;;;;5074885;28;20359;-55
2022/03/09 00:37:03;;;;;;;;;;;3.40;97.10;;;;;;5074821;28;19920;-53
2022/03/09 00:39:28;;;;;;;;;;;3.40;96.90;;;;;;5074167;28;19916;-54
2022/03/09 00:41:53;;;;;;;;;;;3.30;98.30;;;;;;5074720;28;19908;-55
2022/03/09 00:44:19;;;;;;;;;;;3.20;98.30;;;;;;5074620;28;19908;-53
2022/03/09 00:46:44;;;;;;;;;;;3.10;99.30;;;;;;5074488;28;19921;-53
2022/03/09 00:49:10;;;;;;;;;;;3.10;99.50;;;;;;5074523;28;19913;-55
2022/03/09 00:51:35;;;;;;;;;;;3.00;98.60;;;;;;5074406;28;19926;-55
2022/03/09 00:54:01;;;;;;;;;;;2.90;98.80;;;;;;5073871;28;19918;-53
2022/03/09 00:56:26;;;;;;;;;;;2.90;99.90;;;;;;5074269;28;19912;-53
2022/03/09 00:58:52;;;;;;;;;;;3.00;99.90;;;;;;5074451;28;19966;-53
2022/03/09 01:01:17;;;;;;;;;;;3.00;99.60;;;;;;5073736;28;20416;-55
2022/03/09 01:03:43;;;;;;;;;;;3.00;99.20;;;;;;5074282;28;19970;-55
2022/03/09 01:06:08;;;;;;;;;;;3.00;99.50;;;;;;5074132;28;19928;-53
2022/03/09 01:08:34;;;;;;;;;;;3.10;99.90;;;;;;5073521;28;19908;-53
2022/03/09 01:10:59;;;;;;;;;;;3.00;99.70;;;;;;5074009;28;19995;-54
2022/03/09 01:13:25;;;;;;;;;;;3.00;99.90;;;;;;5073926;28;19995;-56
2022/03/09 01:15:50;;;;;;;;;;;2.90;99.60;;;;;;5073370;28;20271;-53
2022/03/09 01:18:16;;;;;;;;;;;2.80;99.90;;;;;;5090341;28;20355;-56
2022/03/09 01:20:41;;;;;;;;;;;2.80;99.90;;;;;;5094398;28;20236;-54
2022/03/09 01:23:07;;;;;;;;;;;2.70;99.90;;;;;;5093781;28;19908;-55
2022/03/09 01:25:32;;;;;;;;;;;2.70;99.90;;;;;;5094082;28;20336;-55
2022/03/09 01:27:58;;;;;;;;;;;2.60;99.90;;;;;;5094089;28;19981;-54
2022/03/09 01:30:23;;;;;;;;;;;2.60;99.90;;;;;;5093468;28;19916;-54
2022/03/09 01:32:49;;;;;;;;;;;2.50;99.90;;;;;;5093736;28;19966;-54
2022/03/09 01:35:14;;;;;;;;;;;2.40;99.90;;;;;;5093636;28;19931;-54
2022/03/09 01:37:40;;;;;;;;;;;2.40;99.90;;;;;;5093924;28;19912;-54
2022/03/09 01:40:06;;;;;;;;;;;2.40;99.90;;;;;;5093946;28;19908;-54
2022/03/09 01:42:31;;;;;;;;;;;2.40;99.90;;;;;;5093213;28;20415;-55
2022/03/09 01:45:04;;;;;;;;;;;2.40;99.90;;;;;;5093855;28;19908;-55
2022/03/09 01:47:29;;;;;;;;;;;2.40;99.90;;;;;;5091544;28;19916;-54
2022/03/09 01:49:55;;;;;;;;;;;2.40;99.90;;;;;;5093312;28;20285;-56
2022/03/09 01:52:20;;;;;;;;;;;2.30;99.90;;;;;;5093563;28;19908;-55
2022/03/09 01:54:46;;;;;;;;;;;2.30;99.90;;;;;;5093763;28;19991;-56
2022/03/09 01:57:12;;;;;;;;;;;2.20;99.90;;;;;;5093188;28;20003;-53
2022/03/09 01:59:37;;;;;;;;;;;2.20;99.90;;;;;;5092682;28;19908;-54
2022/03/09 02:02:03;;;;;;;;;;;2.20;99.90;;;;;;5093663;28;19915;-55
2022/03/09 02:04:29;;;;;;;;;;;2.20;99.90;;;;;;5092988;28;19951;-55
2022/03/09 02:06:54;;;;;;;;;;;2.20;99.90;;;;;;5093579;28;20410;-54
2022/03/09 02:12:04;;;;;;;;;;;2.20;99.90;;;;;;5093179;28;20283;-54
2022/03/09 02:14:36;;;;;;;;;;;2.20;99.90;;;;;;5093390;28;19912;-55
2022/03/09 02:17:03;;;;;;;;;;;2.20;99.90;;;;;;5087161;28;20340;-56
2022/03/09 02:19:29;;;;;;;;;;;2.20;99.90;;;;;;5086860;28;20015;-56
2022/03/09 02:21:58;;;;;;;;;;;2.10;99.90;;;;;;5085782;28;19912;-54
2022/03/09 02:24:24;;;;;;;;;;;2.10;99.90;;;;;;5093213;28;19926;-55
2022/03/09 02:26:50;;;;;;;;;;;2.00;99.90;;;;;;5092707;28;19919;-55
2022/03/09 02:29:15;;;;;;;;;;;2.00;99.90;;;;;;5093359;28;19917;-55
2022/03/09 02:31:41;;;;;;;;;;;2.00;99.90;;;;;;5093014;28;19912;-54
2022/03/09 02:34:06;;;;;;;;;;;2.00;99.90;;;;;;5093015;28;19920;-55
2022/03/09 02:36:32;;;;;;;;;;;2.00;99.90;;;;;;5093309;28;19944;-55
2022/03/09 02:38:58;;;;;;;;;;;2.00;99.90;;;;;;5092826;28;19908;-55
2022/03/09 02:41:24;;;;;;;;;;;2.00;99.90;;;;;;5082057;28;19939;-56
2022/03/09 02:43:49;;;;;;;;;;;2.00;99.90;;;;;;5073022;28;20263;-54
2022/03/09 02:46:15;;;;;;;;;;;2.00;99.90;;;;;;5072331;28;20363;-54
2022/03/09 02:48:40;;;;;;;;;;;2.00;99.90;;;;;;5072993;28;19909;-56
2022/03/09 02:51:06;;;;;;;;;;;2.00;99.90;;;;;;5072988;28;19912;-53
2022/03/09 02:53:31;;;;;;;;;;;2.00;99.90;;;;;;5072316;28;19908;-54
2022/03/09 02:55:56;;;;;;;;;;;2.00;99.90;;;;;;5072956;28;19918;-55
2022/03/09 02:58:22;;;;;;;;;;;1.90;99.90;;;;;;5072843;28;19952;-54
2022/03/09 03:00:47;;;;;;;;;;;1.90;99.90;;;;;;5078200;28;19923;-55
2022/03/09 03:03:13;;;;;;;;;;;1.80;99.90;;;;;;5093029;28;19962;-54
2022/03/09 03:05:38;;;;;;;;;;;1.80;99.90;;;;;;5093092;28;20396;-56
2022/03/09 03:08:04;;;;;;;;;;;1.80;99.90;;;;;;5092528;28;20295;-55
2022/03/09 03:10:29;;;;;;;;;;;1.80;99.90;;;;;;5093932;28;19935;-55
2022/03/09 03:12:55;;;;;;;;;;;1.90;99.90;;;;;;5096710;28;20291;-56
2022/03/09 03:15:20;;;;;;;;;;;1.90;99.90;;;;;;5096084;28;20347;-54
2022/03/09 03:17:46;;;;;;;;;;;1.90;99.90;;;;;;5096562;28;19908;-55
2022/03/09 03:20:11;;;;;;;;;;;1.90;99.90;;;;;;5096484;28;19908;-56
2022/03/09 03:22:37;;;;;;;;;;;1.90;99.90;;;;;;5095908;28;19908;-56
2022/03/09 03:25:02;;;;;;;;;;;1.90;99.90;;;;;;5096346;28;19912;-54
2022/03/09 03:27:28;;;;;;;;;;;1.90;99.90;;;;;;5096247;28;20254;-56
2022/03/09 03:29:53;;;;;;;;;;;1.80;99.90;;;;;;5095688;28;19916;-55
2022/03/09 03:32:18;;;;;;;;;;;1.80;99.90;;;;;;5075828;28;20382;-56
2022/03/09 03:34:44;;;;;;;;;;;1.80;99.90;;;;;;5076102;28;20287;-56
2022/03/09 03:37:09;;;;;;;;;;;1.80;99.90;;;;;;5075533;28;20286;-56
2022/03/09 03:39:35;;;;;;;;;;;1.80;99.90;;;;;;5075792;28;19908;-56
2022/03/09 03:42:00;;;;;;;;;;;1.70;99.90;;;;;;5075462;28;19912;-55
2022/03/09 03:44:27;;;;;;;;;;;1.80;99.90;;;;;;5075803;28;19908;-54
2022/03/09 03:46:52;;;;;;;;;;;1.70;99.90;;;;;;5075753;28;20244;-56
2022/03/09 03:49:18;;;;;;;;;;;1.70;99.90;;;;;;5075224;28;19954;-55
2022/03/09 03:51:43;;;;;;;;;;;1.70;99.90;;;;;;5075581;28;20382;-55
2022/03/09 03:54:10;;;;;;;;;;;1.70;99.90;;;;;;5075677;28;20397;-56
2022/03/09 03:56:36;;;;;;;;;;;1.60;99.90;;;;;;5075077;28;20366;-56
2022/03/09 03:59:01;;;;;;;;;;;1.60;99.90;;;;;;5075637;28;20362;-55
2022/03/09 04:01:27;;;;;;;;;;;1.70;99.90;;;;;;5085795;28;19934;-55
2022/03/09 04:03:52;;;;;;;;;;;1.60;99.90;;;;;;5095157;28;19919;-56
2022/03/09 04:06:18;;;;;;;;;;;1.70;99.90;;;;;;5095602;28;19937;-56
2022/03/09 04:08:43;;;;;;;;;;;1.70;99.90;;;;;;5095555;28;19908;-56
2022/03/09 04:11:09;;;;;;;;;;;1.70;99.90;;;;;;5095135;28;19916;-55
2022/03/09 04:13:34;;;;;;;;;;;1.60;99.90;;;;;;5095452;28;19908;-55
2022/03/09 04:16:00;;;;;;;;;;;1.60;99.90;;;;;;5077370;28;19994;-55
2022/03/09 04:18:25;;;;;;;;;;;1.60;99.90;;;;;;5094721;28;19908;-53
2022/03/09 04:20:50;;;;;;;;;;;1.50;99.90;;;;;;5095464;28;20049;-54
2022/03/09 04:23:16;;;;;;;;;;;1.50;99.90;;;;;;5094387;28;19961;-54
2022/03/09 04:25:41;;;;;;;;;;;1.50;99.90;;;;;;5094750;28;19916;-55
2022/03/09 04:28:07;;;;;;;;;;;1.50;99.90;;;;;;5095390;28;19912;-56
2022/03/09 04:30:33;;;;;;;;;;;1.50;99.90;;;;;;5093325;28;19916;-56
2022/03/09 04:32:58;;;;;;;;;;;1.50;99.90;;;;;;5094348;28;19927;-54
2022/03/09 04:35:24;;;;;;;;;;;1.50;99.90;;;;;;5095104;28;19922;-56
2022/03/09 04:37:50;;;;;;;;;;;1.50;99.90;;;;;;5095100;28;19908;-55
2022/03/09 04:40:16;;;;;;;;;;;1.40;99.90;;;;;;5094511;28;20420;-55
2022/03/09 04:42:42;;;;;;;;;;;1.40;99.90;;;;;;5094841;28;20183;-54
2022/03/09 04:45:08;;;;;;;;;;;1.40;99.90;;;;;;5094768;28;20401;-56
2022/03/09 04:47:34;;;;;;;;;;;1.40;99.90;;;;;;5094592;28;19920;-57
2022/03/09 04:49:59;;;;;;;;;;;1.40;99.90;;;;;;5094769;28;19915;-55
2022/03/09 04:52:25;;;;;;;;;;;1.40;99.90;;;;;;5094136;28;19999;-56
2022/03/09 04:54:50;;;;;;;;;;;1.40;99.90;;;;;;5094687;28;20017;-56
2022/03/09 04:57:16;;;;;;;;;;;1.30;99.90;;;;;;5094683;28;19908;-56
2022/03/09 04:59:41;;;;;;;;;;;1.30;99.90;;;;;;5094044;28;20317;-56
2022/03/09 05:02:07;;;;;;;;;;;1.20;99.90;;;;;;5092777;28;19913;-56
2022/03/09 05:04:32;;;;;;;;;;;1.20;99.90;;;;;;5094468;28;20416;-56
2022/03/09 05:06:57;;;;;;;;;;;1.20;99.90;;;;;;5085763;28;19916;-54
2022/03/09 05:09:23;;;;;;;;;;;1.10;99.90;;;;;;5074094;28;19924;-55
2022/03/09 05:11:48;;;;;;;;;;;1.10;99.90;;;;;;5074236;28;20007;-55
2022/03/09 05:14:14;;;;;;;;;;;1.10;99.90;;;;;;5073633;28;19916;-54
2022/03/09 05:16:39;;;;;;;;;;;1.00;99.90;;;;;;5073942;28;19913;-55
2022/03/09 05:19:05;;;;;;;;;;;1.00;99.90;;;;;;5074099;28;19913;-55
2022/03/09 05:21:31;;;;;;;;;;;1.00;99.90;;;;;;5073418;28;19962;-55
2022/03/09 05:23:56;;;;;;;;;;;1.00;99.90;;;;;;5073932;28;19913;-56
2022/03/09 05:26:21;;;;;;;;;;;1.00;99.90;;;;;;5086382;28;20018;-54
2022/03/09 05:28:47;;;;;;;;;;;1.00;99.90;;;;;;5093615;28;19963;-56
2022/03/09 05:31:12;;;;;;;;;;;1.00;99.90;;;;;;5094150;28;19912;-54
2022/03/09 05:33:38;;;;;;;;;;;1.00;99.90;;;;;;5093603;28;19986;-53
2022/03/09 05:36:03;;;;;;;;;;;0.90;99.90;;;;;;5093504;28;19913;-55
2022/03/09 05:38:29;;;;;;;;;;;1.00;99.90;;;;;;5093898;28;19908;-56
2022/03/09 05:40:54;;;;;;;;;;;0.90;99.90;;;;;;5094038;28;20290;-55
2022/03/09 05:43:20;;;;;;;;;;;0.90;99.90;;;;;;5093275;28;19908;-55
2022/03/09 05:45:45;;;;;;;;;;;0.90;99.90;;;;;;5093772;28;19916;-56
2022/03/09 05:48:11;;;;;;;;;;;0.90;99.90;;;;;;5093838;28;19916;-54
2022/03/09 05:50:36;;;;;;;;;;;0.90;99.90;;;;;;5093204;28;19908;-56
2022/03/09 05:53:02;;;;;;;;;;;1.00;99.90;;;;;;5093818;28;19908;-56
2022/03/09 05:55:28;;;;;;;;;;;1.00;99.90;;;;;;5087922;28;19971;-56
2022/03/09 05:57:53;;;;;;;;;;;0.90;99.90;;;;;;5073359;28;19912;-56
2022/03/09 06:00:18;;;;;;;;;;;0.90;99.90;;;;;;5073488;28;20366;-56
2022/03/09 06:02:44;;;;;;;;;;;0.90;99.90;;;;;;5073153;28;19980;-56
2022/03/09 06:05:09;;;;;;;;;;;0.90;99.90;;;;;;5073374;28;19927;-55
2022/03/09 06:07:35;;;;;;;;;;;0.90;99.90;;;;;;5073228;28;19923;-56
2022/03/09 06:10:01;;;;;;;;;;;0.80;99.90;;;;;;5072888;28;19915;-56
2022/03/09 06:12:26;;;;;;;;;;;0.90;99.90;;;;;;5073295;28;19913;-54
2022/03/09 06:14:52;;;;;;;;;;;0.90;99.90;;;;;;5073274;28;19935;-56
2022/03/09 06:17:17;;;;;;;;;;;0.90;99.90;;;;;;5072724;28;19908;-56
2022/03/09 06:19:43;;;;;;;;;;;0.90;99.90;;;;;;5073367;28;20377;-55
2022/03/09 06:22:08;;;;;;;;;;;0.90;99.90;;;;;;5071909;28;19944;-56
2022/03/09 06:24:34;;;;;;;;;;;0.90;99.90;;;;;;5072731;28;20571;-56
2022/03/09 06:26:59;;;;;;;;;;;0.90;99.90;;;;;;5074175;28;19939;-56
2022/03/09 06:29:25;;;;;;;;;;;0.90;99.90;;;;;;5073207;28;19956;-54
2022/03/09 06:31:51;;;;;;;;;;;1.00;99.90;;;;;;5072783;28;19932;-56
2022/03/09 06:34:16;;;;;;;;;;;1.00;99.90;;;;;;5072901;28;20359;-56
2022/03/09 06:36:44;;;;;;;;;;;1.10;99.90;;;;;;5073090;28;19915;-55
2022/03/09 06:39:15;;;;;;;;;;;1.10;99.90;;;;;;5071788;28;22355;-54
2022/03/09 06:41:41;;;;;;;;;;;1.20;99.90;;;;;;5073012;28;19913;-56
2022/03/09 06:44:07;;;;;;;;;;;1.20;99.90;;;;;;5073029;28;19962;-54
2022/03/09 06:46:32;;;;;;;;;;;1.10;99.90;;;;;;5090195;28;19920;-56
2022/03/09 06:48:58;;;;;;;;;;;1.20;99.90;;;;;;5096741;28;19954;-56
2022/03/09 06:51:23;;;;;;;;;;;1.20;99.90;;;;;;5096683;28;19912;-56
2022/03/09 06:53:49;;;;;;;;;;;1.30;99.90;;;;;;5096179;28;20347;-56
2022/03/09 06:56:15;;;;;;;;;;;1.30;99.90;;;;;;5084926;28;20469;-56
2022/03/09 06:58:41;;;;;;;;;;;1.30;99.90;;;;;;5110612;28;19915;-56
2022/03/09 07:01:06;;;;;;;;;;;1.40;99.90;;;;;;5111162;28;19908;-56
2022/03/09 07:03:32;;;;;;;;;;;1.40;99.90;;;;;;5095997;28;20363;-56
2022/03/09 07:05:57;;;;;;;;;;;1.40;99.90;;;;;;5092534;28;20022;-56
2022/03/09 07:08:23;;;;;;;;;;;1.50;99.90;;;;;;5095220;28;19912;-55
2022/03/09 07:10:48;;;;;;;;;;;1.60;99.90;;;;;;5096186;28;19908;-55
2022/03/09 07:13:13;;;;;;;;;;;1.60;99.90;;;;;;5095575;28;19973;-55
2022/03/09 07:15:39;;;;;;;;;;;1.70;99.90;;;;;;5095216;28;20259;-55
2022/03/09 07:18:05;;;;;;;;;;;1.80;99.90;;;;;;5095429;28;20003;-56
2022/03/09 07:20:30;;;;;;;;;;;1.80;99.90;;;;;;5090959;28;20412;-55
2022/03/09 07:22:56;;;;;;;;;;;1.90;99.90;;;;;;5095714;28;20296;-56
2022/03/09 07:25:21;;;;;;;;;;;2.00;99.90;;;;;;5095449;28;19915;-56
2022/03/09 07:27:47;;;;;;;;;;;2.20;99.90;;;;;;5095366;28;19916;-56
2022/03/09 07:30:13;;;;;;;;;;;2.20;99.90;;;;;;5095777;28;19908;-56
2022/03/09 07:32:39;;;;;;;;;;;2.30;99.90;;;;;;5095206;28;19928;-56
2022/03/09 07:35:04;;;;;;;;;;;2.40;99.90;;;;;;5095049;28;19916;-56
2022/03/09 07:37:30;;;;;;;;;;;2.50;99.90;;;;;;5095338;28;19909;-55
2022/03/09 07:39:55;;;;;;;;;;;2.60;99.90;;;;;;5095619;28;19916;-55
2022/03/09 07:42:21;;;;;;;;;;;2.70;99.90;;;;;;5094887;28;19908;-55
2022/03/09 07:44:46;;;;;;;;;;;2.80;99.90;;;;;;5095393;28;19909;-55
2022/03/09 07:47:11;;;;;;;;;;;2.90;99.90;;;;;;5095498;28;20014;-57
2022/03/09 07:49:37;;;;;;;;;;;3.00;99.90;;;;;;5094592;28;20378;-56
2022/03/09 07:52:04;;;;;;;;;;;3.10;99.90;;;;;;5094384;28;20315;-55
2022/03/09 07:54:29;;;;;;;;;;;3.20;99.90;;;;;;5093721;28;19916;-55
2022/03/09 07:56:55;;;;;;;;;;;3.30;99.90;;;;;;5092230;28;20341;-56
2022/03/09 07:59:20;;;;;;;;;;;3.40;99.90;;;;;;5094663;28;19931;-54
2022/03/09 08:01:46;;;;;;;;;;;3.50;99.90;;;;;;5095264;28;19913;-56
2022/03/09 08:04:11;;;;;;;;;;;3.60;99.90;;;;;;5065078;28;19912;-55
2022/03/09 08:06:37;;;;;;;;;;;3.80;99.90;;;;;;5107613;28;19951;-56
2022/03/09 08:09:03;;;;;;;;;;;3.90;99.90;;;;;;5115534;28;19915;-55
2022/03/09 08:11:28;;;;;;;;;;;4.00;99.90;;;;;;5090930;28;19955;-56
2022/03/09 08:13:54;;;;;;;;;;;4.10;99.90;;;;;;5094715;28;19958;-56
2022/03/09 08:16:19;;;;;;;;;;;4.30;99.90;;;;;;5114550;28;19908;-55
2022/03/09 08:18:45;;;;;;;;;;;4.40;99.90;;;;;;5097160;28;19919;-56
2022/03/09 08:21:10;;;;;;;;;;;4.50;99.90;;;;;;5094757;28;19908;-56
2022/03/09 08:23:36;;;;;;;;;;;4.60;99.90;;;;;;5094052;28;19956;-56
2022/03/09 08:26:01;;;;;;;;;;;4.70;99.90;;;;;;5094523;28;19965;-56
2022/03/09 08:28:27;;;;;;;;;;;4.80;99.90;;;;;;5094214;28;19912;-54
2022/03/09 08:30:54;;;;;;;;;;;4.90;99.90;;;;;;5102902;28;19912;-54
2022/03/09 08:33:20;;;;;;;;;;;5.00;99.90;;;;;;5114294;28;19926;-55
2022/03/09 08:35:45;;;;;;;;;;;5.20;99.90;;;;;;5114792;28;20002;-55
2022/03/09 08:38:11;;;;;;;;;;;5.30;99.90;;;;;;5114473;28;20537;-56
2022/03/09 08:40:36;;;;;;;;;;;5.30;99.80;;;;;;5114516;28;20350;-54
2022/03/09 08:43:01;;;;;;;;;;;5.50;99.60;;;;;;5114916;28;19908;-55
2022/03/09 08:45:27;;;;;;;;;;;5.60;99.30;;;;;;5113812;28;19907;-56
2022/03/09 08:47:52;;;;;;;;;;;5.60;97.40;;;;;;5114484;28;19915;-55
2022/03/09 08:50:18;;;;;;;;;;;5.80;94.40;;;;;;5114542;28;19915;-56
2022/03/09 08:52:43;;;;;;;;;;;5.90;96.00;;;;;;5113876;28;20007;-56
2022/03/09 08:55:09;;;;;;;;;;;5.90;95.30;;;;;;5114560;28;20002;-54
2022/03/09 08:57:35;;;;;;;;;;;6.10;92.70;;;;;;5114098;28;20393;-55
2022/03/09 09:00:04;;;;;;;;;;;6.10;89.80;;;;;;5113927;28;20273;-55
2022/03/09 09:02:30;;;;;;;;;;;6.30;81.20;;;;;;5114000;28;19953;-56
2022/03/09 09:04:56;;;;;;;;;;;6.40;92.20;;;;;;5114380;28;20000;-56
2022/03/09 09:07:22;;;;;;;;;;;6.50;79.10;;;;;;5095412;28;20326;-56
2022/03/09 09:09:47;;;;;;;;;;;6.60;81.70;;;;;;5093290;28;20346;-53
2022/03/09 09:12:13;;;;;;;;;;;6.70;81.20;;;;;;5093864;28;19961;-56
2022/03/09 09:14:38;;;;;;;;;;;6.80;82.50;;;;;;5092782;28;19908;-54
2022/03/09 09:17:04;;;;;;;;;;;6.90;85.50;;;;;;5085794;28;20003;-55
2022/03/09 09:19:29;;;;;;;;;;;7.00;84.20;;;;;;5072661;28;19908;-55
2022/03/09 09:21:55;;;;;;;;;;;7.10;84.10;;;;;;5073440;28;19932;-56
2022/03/09 09:24:21;;;;;;;;;;;7.20;77.00;;;;;;5072990;28;19982;-55
2022/03/09 09:26:46;;;;;;;;;;;7.30;79.70;;;;;;5072746;28;19920;-55
2022/03/09 09:29:12;;;;;;;;;;;7.30;78.00;;;;;;5073304;28;19909;-55
2022/03/09 09:31:37;;;;;;;;;;;7.40;78.00;;;;;;5072879;28;19909;-54
2022/03/09 09:34:03;;;;;;;;;;;7.50;71.00;;;;;;5072328;28;19921;-56
2022/03/09 09:36:28;;;;;;;;;;;7.50;71.70;;;;;;5073936;28;20356;-56
2022/03/09 09:38:54;;;;;;;;;;;7.60;74.30;;;;;;5073000;28;19915;-56
2022/03/09 09:41:24;;;;;;;;;;;7.70;76.40;;;;;;5072518;28;20377;-55
2022/03/09 09:43:49;;;;;;;;;;;7.80;74.40;;;;;;5072743;28;19915;-56
2022/03/09 09:46:15;;;;;;;;;;;7.80;75.40;;;;;;5071979;28;19912;-56
2022/03/09 09:48:42;;;;;;;;;;;7.90;74.50;;;;;;5072355;28;20061;-56
2022/03/09 09:51:08;;;;;;;;;;;8.00;76.10;;;;;;5072913;28;19908;-55
2022/03/09 09:53:35;;;;;;;;;;;8.10;76.80;;;;;;5072730;28;19916;-56
2022/03/09 09:56:01;;;;;;;;;;;8.10;71.20;;;;;;5072130;28;19909;-55
2022/03/09 09:58:28;;;;;;;;;;;8.20;71.20;;;;;;5072573;28;19962;-54
2022/03/09 10:00:54;;;;;;;;;;;8.30;74.60;;;;;;5072797;28;20485;-56
2022/03/09 10:03:20;;;;;;;;;;;8.40;73.30;;;;;;5072010;28;19935;-56
2022/03/09 10:05:45;;;;;;;;;;;8.50;71.60;;;;;;5073408;28;20374;-56
2022/03/09 10:08:14;;;;;;;;;;;8.60;73.30;;;;;;5072781;28;19965;-56
2022/03/09 10:10:41;;;;;;;;;;;8.70;67.30;;;;;;5071092;28;19908;-56
2022/03/09 10:13:20;;;;;;;;;;;8.80;63.90;;;;;;5071858;28;19908;-56
2022/03/09 10:15:47;;;;;;;;;;;8.90;64.50;;;;;;5071591;28;19991;-56
2022/03/09 10:18:19;;;;;;;;;;;8.90;61.80;;;;;;5091583;28;19935;-55
2022/03/09 10:20:45;;;;;;;;;;;9.10;59.70;;;;;;5092664;28;20007;-56
2022/03/09 10:23:11;;;;;;;;;;;9.10;65.00;;;;;;5094773;28;19999;-56
2022/03/09 10:25:38;;;;;;;;;;;9.20;59.40;;;;;;5096714;28;19991;-56
2022/03/09 10:28:21;;;;;;;;;;;9.30;63.30;;;;;;5094868;28;20268;-55
2022/03/09 10:30:47;;;;;;;;;;;9.40;63.50;;;;;;5095590;28;19912;-55
2022/03/09 10:33:13;;;;;;;;;;;9.50;65.20;;;;;;5096589;28;19920;-56
2022/03/09 10:35:43;;;;;;;;;;;9.50;65.30;;;;;;5094786;28;20003;-56
2022/03/09 10:38:21;;;;;;;;;;;9.70;66.30;;;;;;5077071;28;19948;-56
2022/03/09 10:40:47;;;;;;;;;;;9.70;61.90;;;;;;5076352;28;19908;-53
2022/03/09 10:43:24;;;;;;;;;;;9.80;59.40;;;;;;5089477;28;19912;-55
2022/03/09 10:45:58;;;;;;;;;;;9.80;64.10;;;;;;5095206;28;19912;-56
2022/03/09 10:48:25;;;;;;;;;;;10.00;65.80;;;;;;5094132;28;19912;-55
2022/03/09 10:50:54;;;;;;;;;;;10.10;65.10;;;;;;5096390;28;20274;-56
2022/03/09 10:53:20;;;;;;;;;;;10.20;62.70;;;;;;5095675;28;19908;-56
2022/03/09 10:55:45;;;;;;;;;;;10.40;63.20;;;;;;5077589;28;20007;-56
2022/03/09 10:58:15;;;;;;;;;;;10.40;63.40;;;;;;5095644;28;20365;-55
2022/03/09 11:00:47;;;;;;;;;;;10.60;63.40;;;;;;5096124;28;19974;-54
2022/03/09 11:03:14;;;;;;;;;;;10.70;60.70;;;;;;5096313;28;19931;-55
2022/03/09 11:05:54;;;;;;;;;;;10.80;60.40;;;;;;5095339;28;20387;-55
2022/03/09 11:08:20;;;;;;;;;;;10.80;59.70;;;;;;5094929;28;19957;-56
2022/03/09 11:10:46;;;;;;;;;;;11.00;59.50;;;;;;5096272;28;19940;-56
2022/03/09 11:13:12;;;;;;;;;;;11.00;59.10;;;;;;5095557;28;19950;-54
2022/03/09 11:15:38;;;;;;;;;;;11.10;61.60;;;;;;5093430;28;19908;-55
2022/03/09 11:18:04;;;;;;;;;;;11.20;61.30;;;;;;5075257;28;20428;-55
2022/03/09 11:20:30;;;;;;;;;;;11.30;59.80;;;;;;5074868;28;19912;-55
2022/03/09 11:22:55;;;;;;;;;;;11.40;55.40;;;;;;5075375;28;19909;-56
2022/03/09 11:25:23;;;;;;;;;;;11.50;55.80;;;;;;5087547;28;20019;-56
2022/03/09 11:27:50;;;;;;;;;;;11.60;60.00;;;;;;5095075;28;20020;-55
2022/03/09 11:30:20;;;;;;;;;;;11.70;58.60;;;;;;5095543;28;20274;-54
2022/03/09 11:32:45;;;;;;;;;;;11.80;58.50;;;;;;5094945;28;20030;-56
2022/03/09 11:35:29;;;;;;;;;;;11.90;55.60;;;;;;5094121;28;20003;-55
2022/03/09 11:37:54;;;;;;;;;;;12.00;53.30;;;;;;5095291;28;20382;-55
2022/03/09 11:40:20;;;;;;;;;;;12.10;55.10;;;;;;5094780;28;19908;-57
2022/03/09 11:42:45;;;;;;;;;;;12.20;53.60;;;;;;5095306;28;20355;-55
2022/03/09 11:45:14;;;;;;;;;;;12.30;53.90;;;;;;5095130;28;20392;-55
2022/03/09 11:47:58;;;;;;;;;;;12.30;51.80;;;;;;5082208;28;19931;-54
2022/03/09 11:50:24;;;;;;;;;;;12.40;55.40;;;;;;5075013;28;20411;-56
2022/03/09 11:53:01;;;;;;;;;;;12.60;57.90;;;;;;5091899;28;19908;-56
2022/03/09 11:55:27;;;;;;;;;;;12.70;53.30;;;;;;5114948;28;19919;-56
2022/03/09 11:57:56;;;;;;;;;;;12.80;55.20;;;;;;5107301;28;19973;-55
2022/03/09 12:00:21;;;;;;;;;;;12.80;49.30;;;;;;5074375;28;19908;-56
2022/03/09 12:02:51;;;;;;;;;;;12.80;46.20;;;;;;5074301;28;19915;-55
2022/03/09 12:05:34;;;;;;;;;;;12.80;49.00;;;;;;5066591;28;20335;-54
2022/03/09 12:08:18;;;;;;;;;;;12.80;51.10;;;;;;5074511;28;19939;-55
2022/03/09 12:10:49;;;;;;;;;;;12.80;47.80;;;;;;5074636;28;20262;-56
2022/03/09 12:13:25;;;;;;;;;;;13.10;51.00;;;;;;5066276;28;19912;-55
2022/03/09 12:15:56;;;;;;;;;;;13.10;48.30;;;;;;5082239;28;20359;-55
2022/03/09 12:18:36;;;;;;;;;;;13.20;49.80;;;;;;5094369;28;19908;-56
2022/03/09 12:21:01;;;;;;;;;;;13.30;49.20;;;;;;5094827;28;19943;-56
2022/03/09 12:23:27;;;;;;;;;;;13.40;46.80;;;;;;5092889;28;19958;-56
2022/03/09 12:25:53;;;;;;;;;;;13.50;48.40;;;;;;5094586;28;19915;-55
2022/03/09 12:28:22;;;;;;;;;;;13.50;48.80;;;;;;5086919;28;20362;-56
2022/03/09 12:30:48;;;;;;;;;;;13.70;49.30;;;;;;5092876;28;19912;-55
2022/03/09 12:33:30;;;;;;;;;;;13.80;50.20;;;;;;5093885;28;19920;-56
2022/03/09 12:36:05;;;;;;;;;;;13.80;44.20;;;;;;5094467;28;19916;-54
2022/03/09 12:38:38;;;;;;;;;;;13.80;43.10;;;;;;5093890;28;19908;-54
2022/03/09 12:41:03;;;;;;;;;;;13.90;46.30;;;;;;5076122;28;20373;-54
2022/03/09 12:43:47;;;;;;;;;;;14.00;43.80;;;;;;5091760;28;19908;-54
2022/03/09 12:46:13;;;;;;;;;;;14.00;48.20;;;;;;5094195;28;20014;-55
2022/03/09 12:48:39;;;;;;;;;;;14.10;49.20;;;;;;5082122;28;20058;-55
2022/03/09 12:51:05;;;;;;;;;;;14.20;44.20;;;;;;5073417;28;19912;-55
2022/03/09 12:53:30;;;;;;;;;;;14.30;46.30;;;;;;5073633;28;19908;-56
2022/03/09 12:55:56;;;;;;;;;;;14.40;45.70;;;;;;5074912;28;19913;-55
2022/03/09 12:58:22;;;;;;;;;;;14.40;45.20;;;;;;5073219;28;19909;-55
2022/03/09 13:00:58;;;;;;;;;;;14.50;47.70;;;;;;5073740;28;19908;-55
2022/03/09 13:03:26;;;;;;;;;;;14.60;48.40;;;;;;5073515;28;19913;-55
2022/03/09 13:05:51;;;;;;;;;;;14.60;43.00;;;;;;5073102;28;20355;-55
2022/03/09 13:08:17;;;;;;;;;;;14.70;47.70;;;;;;5079355;28;19923;-54
2022/03/09 13:10:45;;;;;;;;;;;14.70;48.30;;;;;;5101252;28;21051;-55
2022/03/09 13:13:10;;;;;;;;;;;14.70;46.60;;;;;;5113550;28;19918;-55
2022/03/09 13:15:36;;;;;;;;;;;14.70;44.00;;;;;;5113872;28;19912;-55
2022/03/09 13:18:02;;;;;;;;;;;14.70;44.10;;;;;;5113734;28;19908;-55
2022/03/09 13:20:28;;;;;;;;;;;14.80;41.60;;;;;;5113197;28;19907;-55
2022/03/09 13:22:53;;;;;;;;;;;14.90;45.90;;;;;;5113769;28;19953;-54
2022/03/09 13:25:19;;;;;;;;;;;15.00;44.60;;;;;;5113485;28;20006;-55
2022/03/09 13:27:44;;;;;;;;;;;15.20;46.20;;;;;;5102688;28;19933;-55
2022/03/09 13:30:22;;;;;;;;;;;15.20;40.20;;;;;;5093536;28;19962;-55
2022/03/09 13:32:47;;;;;;;;;;;15.40;42.70;;;;;;5091570;28;19924;-55
2022/03/09 13:35:17;;;;;;;;;;;15.70;43.40;;;;;;5092645;28;19953;-55
2022/03/09 13:37:42;;;;;;;;;;;15.90;40.90;;;;;;5093274;28;19908;-55
2022/03/09 13:40:09;;;;;;;;;;;16.20;46.10;;;;;;5092508;28;20518;-55
2022/03/09 13:42:39;;;;;;;;;;;16.20;45.90;;;;;;5092857;28;19908;-54
2022/03/09 13:45:11;;;;;;;;;;;16.20;44.10;;;;;;5092950;28;20248;-55
2022/03/09 13:47:50;;;;;;;;;;;16.40;43.40;;;;;;5092105;28;19923;-54
2022/03/09 13:50:20;;;;;;;;;;;16.70;43.00;;;;;;5092692;28;19920;-56
2022/03/09 13:52:46;;;;;;;;;;;17.00;43.60;;;;;;5075173;28;20341;-54
2022/03/09 13:55:18;;;;;;;;;;;17.00;38.40;;;;;;5092478;28;19908;-53
2022/03/09 13:57:43;;;;;;;;;;;16.90;35.70;;;;;;5085426;28;19917;-54
2022/03/09 14:00:09;;;;;;;;;;;17.10;38.20;;;;;;5072867;28;20249;-54
2022/03/09 14:02:34;;;;;;;;;;;17.50;43.80;;;;;;5071854;28;19908;-54
2022/03/09 14:05:00;;;;;;;;;;;17.80;44.40;;;;;;5072900;28;19909;-54
2022/03/09 14:07:36;;;;;;;;;;;18.20;42.90;;;;;;5072395;28;19921;-55
2022/03/09 14:10:13;;;;;;;;;;;18.60;44.10;;;;;;5072323;28;19908;-55
2022/03/09 14:12:39;;;;;;;;;;;18.90;40.40;;;;;;5072588;28;20266;-55
2022/03/09 14:15:05;;;;;;;;;;;18.60;37.50;;;;;;5072117;28;20260;-55
2022/03/09 14:17:31;;;;;;;;;;;18.70;39.00;;;;;;5072326;28;19913;-55
2022/03/09 14:19:56;;;;;;;;;;;18.80;36.70;;;;;;5072701;28;20360;-55
2022/03/09 14:22:22;;;;;;;;;;;18.60;32.80;;;;;;5071849;28;19935;-54
2022/03/09 14:24:48;;;;;;;;;;;18.90;37.90;;;;;;5072635;28;19928;-55